createdAt,value
2022-11-11T00:01:05.670Z,7.87
2022-11-11T00:03:33.091Z,6.47
2022-11-11T00:06:12.078Z,6.67
2022-11-11T00:08:41.648Z,7.37
2022-11-11T00:11:13.363Z,6.00
2022-11-11T00:13:41.380Z,7.63
2022-11-11T00:16:19.526Z,5.73
2022-11-11T00:19:05.636Z,6.33
2022-11-11T00:21:51.094Z,5.93
2022-11-11T00:24:45.778Z,5.23
2022-11-11T00:27:13.601Z,5.27
2022-11-11T00:29:40.912Z,5.37
2022-11-11T00:32:24.190Z,6.53
2022-11-11T00:35:11.073Z,6.17
2022-11-11T00:37:38.102Z,6.00
2022-11-11T00:40:05.567Z,9.10
2022-11-11T00:42:32.492Z,6.50
2022-11-11T00:44:59.293Z,6.40
2022-11-11T00:47:44.947Z,6.60
2022-11-11T00:50:34.322Z,6.73
2022-11-11T00:53:02.290Z,20.23
2022-11-11T00:55:28.973Z,9.60
2022-11-11T00:57:55.739Z,8.23
2022-11-11T01:00:22.517Z,6.87
2022-11-11T01:02:49.364Z,12.07
2022-11-11T01:05:16.300Z,10.37
2022-11-11T01:07:43.029Z,7.30
2022-11-11T01:10:10.364Z,8.20
2022-11-11T01:12:37.316Z,7.67
2022-11-11T01:15:04.303Z,12.37
2022-11-11T01:17:31.082Z,9.27
2022-11-11T01:19:57.824Z,6.97
2022-11-11T01:22:24.632Z,6.30
2022-11-11T01:24:51.315Z,7.53
2022-11-11T01:27:18.195Z,6.33
2022-11-11T01:29:45.244Z,5.70
2022-11-11T01:32:12.023Z,10.77
2022-11-11T01:34:38.831Z,7.90
2022-11-11T01:37:05.563Z,6.57
2022-11-11T01:39:32.304Z,6.57
2022-11-11T01:42:01.840Z,6.43
2022-11-11T01:44:48.367Z,6.10
2022-11-11T01:47:17.835Z,6.00
2022-11-11T01:49:57.568Z,5.83
2022-11-11T01:52:34.580Z,6.93
2022-11-11T01:55:20.480Z,6.10
2022-11-11T01:58:00.404Z,9.73
2022-11-11T02:00:27.570Z,7.77
2022-11-11T02:03:06.117Z,8.17
2022-11-11T02:05:48.004Z,24.60
2022-11-11T02:08:33.953Z,10.17
2022-11-11T02:11:36.797Z,6.73
2022-11-11T02:14:22.910Z,9.20
2022-11-11T02:16:50.453Z,12.33
2022-11-11T02:19:19.830Z,6.23
2022-11-11T02:21:55.588Z,6.57
2022-11-11T02:24:23.537Z,7.27
2022-11-11T02:26:55.513Z,6.80
2022-11-11T02:29:24.950Z,6.13
2022-11-11T02:31:51.833Z,6.13
2022-11-11T02:34:18.681Z,7.93
2022-11-11T02:36:45.605Z,12.10
2022-11-11T02:39:12.509Z,5.60
2022-11-11T02:41:57.289Z,6.13
2022-11-11T02:44:26.138Z,4.83
2022-11-11T02:46:53.195Z,4.50
2022-11-11T02:49:20.035Z,5.17
2022-11-11T02:51:47.941Z,5.23
2022-11-11T02:54:14.920Z,4.90
2022-11-11T02:57:00.214Z,4.90
2022-11-11T02:59:26.877Z,7.53
2022-11-11T03:01:53.795Z,10.97
2022-11-11T03:04:20.690Z,6.10
2022-11-11T03:06:47.416Z,5.13
2022-11-11T03:09:14.639Z,5.10
2022-11-11T03:11:41.656Z,4.80
2022-11-11T03:14:08.949Z,4.93
2022-11-11T03:16:54.525Z,4.80
2022-11-11T03:19:21.284Z,5.53
2022-11-11T03:24:53.222Z,7.67
2022-11-11T03:27:19.926Z,7.53
2022-11-11T03:29:46.588Z,8.43
2022-11-11T03:32:13.740Z,9.23
2022-11-11T03:34:40.564Z,9.63
2022-11-11T03:37:28.474Z,7.63
2022-11-11T03:39:55.260Z,7.10
2022-11-11T03:42:22.139Z,6.33
2022-11-11T03:44:48.817Z,9.57
2022-11-11T03:47:16.375Z,6.83
2022-11-11T03:49:45.816Z,6.77
2022-11-11T03:52:13.168Z,8.17
2022-11-11T03:54:40.116Z,6.77
2022-11-11T03:57:25.464Z,6.80
2022-11-11T03:59:52.144Z,6.43
2022-11-11T04:02:37.389Z,8.13
2022-11-11T04:05:23.062Z,8.13
2022-11-11T04:08:10.039Z,7.97
2022-11-11T04:10:36.979Z,7.60
2022-11-11T04:13:23.889Z,5.37
2022-11-11T04:16:09.181Z,6.77
2022-11-11T04:18:54.977Z,6.70
2022-11-11T04:21:41.409Z,5.20
2022-11-11T04:24:37.371Z,5.93
2022-11-11T04:27:12.877Z,5.27
2022-11-11T04:29:39.977Z,5.53
2022-11-11T04:32:31.448Z,5.30
2022-11-11T04:35:03.615Z,6.27
2022-11-11T04:37:35.279Z,5.27
2022-11-11T04:40:20.551Z,5.93
2022-11-11T04:42:47.356Z,6.63
2022-11-11T04:45:31.536Z,6.43
2022-11-11T04:48:04.306Z,6.07
2022-11-11T04:50:36.415Z,6.23
2022-11-11T04:53:05.660Z,6.17
2022-11-11T04:55:51.234Z,7.17
2022-11-11T04:58:20.024Z,6.40
2022-11-11T05:00:46.878Z,6.67
2022-11-11T05:03:18.394Z,6.33
2022-11-11T05:06:05.830Z,6.67
2022-11-11T05:08:52.206Z,6.87
2022-11-11T05:11:19.655Z,6.70
2022-11-11T05:14:05.280Z,6.23
2022-11-11T05:16:55.358Z,7.80
2022-11-11T05:19:40.945Z,7.00
2022-11-11T05:22:11.724Z,7.53
2022-11-11T05:24:57.006Z,8.77
2022-11-11T05:27:24.932Z,8.70
2022-11-11T05:29:51.880Z,7.53
2022-11-11T05:32:19.934Z,8.60
2022-11-11T05:34:47.371Z,8.23
2022-11-11T05:37:15.116Z,7.87
2022-11-11T05:39:42.167Z,8.13
2022-11-11T05:42:09.467Z,16.50
2022-11-11T05:44:36.460Z,26.93
2022-11-11T05:47:03.523Z,12.60
2022-11-11T05:49:30.418Z,8.97
2022-11-11T05:51:57.446Z,12.20
2022-11-11T05:54:24.429Z,9.20
2022-11-11T05:56:51.619Z,10.33
2022-11-11T05:59:18.652Z,9.57
2022-11-11T06:01:45.660Z,9.50
2022-11-11T06:04:17.685Z,18.10
2022-11-11T06:06:44.877Z,12.87
2022-11-11T06:09:11.584Z,17.10
2022-11-11T06:11:38.432Z,15.13
2022-11-11T06:14:05.766Z,10.77
2022-11-11T06:16:32.508Z,8.20
2022-11-11T06:19:00.113Z,7.47
2022-11-11T06:21:31.552Z,7.50
2022-11-11T06:23:58.295Z,12.20
2022-11-11T06:26:25.041Z,6.90
2022-11-11T06:28:54.144Z,8.60
2022-11-11T06:31:23.695Z,11.33
2022-11-11T06:33:50.514Z,7.80
2022-11-11T06:36:19.539Z,5.80
2022-11-11T06:38:46.489Z,5.90
2022-11-11T06:41:13.888Z,5.80
2022-11-11T06:43:41.628Z,6.03
2022-11-11T06:46:18.321Z,5.80
2022-11-11T06:48:45.403Z,5.83
2022-11-11T06:51:14.052Z,5.47
2022-11-11T06:53:41.757Z,5.83
2022-11-11T06:56:09.479Z,6.00
2022-11-11T06:58:36.218Z,5.50
2022-11-11T07:01:07.109Z,5.47
2022-11-11T07:03:34.353Z,4.83
2022-11-11T07:06:02.393Z,4.30
2022-11-11T07:08:29.303Z,4.47
2022-11-11T07:10:56.150Z,4.47
2022-11-11T07:13:23.238Z,5.07
2022-11-11T07:15:50.236Z,4.57
2022-11-11T07:18:16.976Z,5.47
2022-11-11T07:20:43.794Z,5.03
2022-11-11T07:23:10.482Z,7.30
2022-11-11T07:25:37.249Z,3.87
2022-11-11T07:28:04.060Z,3.97
2022-11-11T07:30:30.741Z,4.00
2022-11-11T07:32:57.489Z,4.00
2022-11-11T07:35:24.278Z,5.17
2022-11-11T07:37:51.066Z,4.33
2022-11-11T07:40:19.140Z,4.93
2022-11-11T07:42:46.122Z,4.70
2022-11-11T07:45:13.946Z,4.67
2022-11-11T07:47:43.355Z,4.27
2022-11-11T07:50:10.516Z,3.77
2022-11-11T07:52:37.568Z,3.20
2022-11-11T07:55:05.834Z,3.30
2022-11-11T07:57:32.724Z,4.10
2022-11-11T07:59:59.443Z,4.17
2022-11-11T08:02:26.254Z,5.07
2022-11-11T08:04:55.687Z,5.00
2022-11-11T08:07:23.963Z,4.73
2022-11-11T08:09:51.757Z,6.43
2022-11-11T08:12:36.924Z,7.27
2022-11-11T08:15:06.816Z,6.33
2022-11-11T08:17:40.368Z,4.70
2022-11-11T08:20:09.288Z,4.73
2022-11-11T08:22:40.577Z,4.10
2022-11-11T08:25:10.574Z,3.17
2022-11-11T08:27:37.994Z,3.90
2022-11-11T08:30:07.096Z,4.60
2022-11-11T08:32:33.930Z,3.37
2022-11-11T08:35:00.786Z,3.53
2022-11-11T08:37:29.081Z,3.43
2022-11-11T08:39:55.818Z,3.37
2022-11-11T08:42:22.707Z,3.73
2022-11-11T08:44:49.478Z,3.67
2022-11-11T08:47:16.177Z,3.50
2022-11-11T08:49:43.458Z,3.37
2022-11-11T08:52:10.319Z,4.20
2022-11-11T08:54:36.958Z,4.00
2022-11-11T08:57:03.887Z,4.10
2022-11-11T08:59:30.662Z,5.33
2022-11-11T09:01:57.335Z,3.90
2022-11-11T09:07:11.656Z,3.90
2022-11-11T09:09:38.393Z,4.20
2022-11-11T09:12:05.215Z,5.27
2022-11-11T09:14:31.933Z,4.53
2022-11-11T09:16:58.800Z,4.70
2022-11-11T09:19:25.525Z,5.40
2022-11-11T09:21:55.037Z,4.93
2022-11-11T09:24:22.192Z,4.30
2022-11-11T09:26:49.726Z,7.43
2022-11-11T09:29:17.250Z,5.03
2022-11-11T09:31:45.788Z,5.00
2022-11-11T09:34:13.687Z,5.40
2022-11-11T09:36:40.690Z,5.20
2022-11-11T09:39:07.390Z,8.17
2022-11-11T09:41:56.279Z,4.60
2022-11-11T09:44:45.943Z,4.50
2022-11-11T09:47:54.338Z,4.57
2022-11-11T09:50:28.073Z,5.03
2022-11-11T09:53:07.193Z,6.37
2022-11-11T09:55:40.917Z,4.63
2022-11-11T09:58:23.284Z,4.60
2022-11-11T10:01:01.175Z,4.57
2022-11-11T10:03:31.200Z,4.53
2022-11-11T10:06:21.039Z,5.43
2022-11-11T10:09:11.504Z,5.10
2022-11-11T10:11:53.395Z,5.60
2022-11-11T10:14:20.189Z,6.77
2022-11-11T10:17:09.943Z,5.40
2022-11-11T10:19:44.891Z,5.80
2022-11-11T10:22:42.319Z,6.00
2022-11-11T10:25:09.372Z,6.07
2022-11-11T10:27:37.103Z,6.67
2022-11-11T10:30:31.216Z,6.43
2022-11-11T10:33:13.793Z,5.53
2022-11-11T10:35:41.853Z,7.80
2022-11-11T10:38:17.990Z,5.53
2022-11-11T10:40:54.154Z,5.77
2022-11-11T10:43:26.656Z,5.03
2022-11-11T10:46:17.868Z,5.17
2022-11-11T10:49:04.589Z,5.20
2022-11-11T10:51:38.275Z,6.63
2022-11-11T10:54:19.904Z,5.77
2022-11-11T10:56:55.564Z,5.90
2022-11-11T10:59:37.191Z,5.73
2022-11-11T11:02:21.429Z,5.67
2022-11-11T11:05:19.792Z,5.40
2022-11-11T11:08:00.045Z,7.03
2022-11-11T11:10:43.487Z,9.10
2022-11-11T11:13:17.547Z,7.93
2022-11-11T11:15:49.986Z,6.37
2022-11-11T11:18:18.661Z,7.50
2022-11-11T11:21:02.819Z,7.83
2022-11-11T11:23:40.919Z,7.60
2022-11-11T11:26:09.377Z,7.00
2022-11-11T11:28:51.910Z,8.53
2022-11-11T11:31:35.947Z,8.63
2022-11-11T11:34:02.928Z,10.77
2022-11-11T11:36:29.963Z,9.40
2022-11-11T11:38:56.627Z,10.05
2022-11-11T11:41:38.456Z,8.40
2022-11-11T11:44:28.883Z,10.70
2022-11-11T11:47:26.049Z,10.45
2022-11-11T11:50:11.556Z,11.75
2022-11-11T11:53:09.226Z,10.57
2022-11-11T11:55:42.454Z,12.40
2022-11-11T11:58:50.730Z,11.93
2022-11-11T12:01:29.875Z,12.70
2022-11-11T12:04:07.226Z,11.00
2022-11-11T12:06:50.394Z,11.77
2022-11-11T12:09:20.372Z,12.50
2022-11-11T12:12:00.466Z,12.15
2022-11-11T12:14:30.115Z,14.18
2022-11-11T12:17:07.688Z,13.75
2022-11-11T12:19:59.463Z,33.03
2022-11-11T12:22:47.472Z,12.98
2022-11-11T12:25:39.899Z,14.20
2022-11-11T12:28:21.993Z,13.88
2022-11-11T12:30:55.162Z,12.88
2022-11-11T12:33:42.243Z,12.40
2022-11-11T12:36:14.653Z,12.88
2022-11-11T12:38:57.896Z,11.73
2022-11-11T12:41:41.982Z,12.65
2022-11-11T12:44:10.917Z,13.00
2022-11-11T12:46:37.557Z,12.05
2022-11-11T12:49:13.053Z,12.85
2022-11-11T12:51:46.024Z,11.82
2022-11-11T12:54:33.607Z,15.32
2022-11-11T12:57:42.166Z,11.63
2022-11-11T13:00:10.752Z,12.82
2022-11-11T13:03:06.831Z,13.15
2022-11-11T13:05:41.593Z,13.82
2022-11-11T13:08:28.495Z,13.30
2022-11-11T13:11:27.528Z,15.00
2022-11-11T13:14:21.522Z,13.25
2022-11-11T13:16:51.702Z,13.00
2022-11-11T13:19:28.993Z,12.80
2022-11-11T13:22:05.598Z,13.57
2022-11-11T13:24:32.795Z,16.55
2022-11-11T13:27:18.120Z,14.45
2022-11-11T13:30:06.594Z,12.27
2022-11-11T13:32:39.833Z,13.35
2022-11-11T13:35:22.164Z,13.38
2022-11-11T13:37:49.035Z,12.27
2022-11-11T13:40:44.999Z,13.90
2022-11-11T13:43:23.981Z,13.65
2022-11-11T13:45:53.571Z,12.07
2022-11-11T13:48:26.361Z,14.18
2022-11-11T13:50:53.990Z,15.77
2022-11-11T13:53:36.089Z,15.15
2022-11-11T13:56:04.579Z,17.83
2022-11-11T13:58:37.777Z,15.57
2022-11-11T14:01:08.393Z,19.55
2022-11-11T14:03:58.976Z,15.05
2022-11-11T14:06:30.362Z,15.10
2022-11-11T14:08:57.738Z,16.45
2022-11-11T14:11:24.392Z,15.68
2022-11-11T14:13:59.129Z,17.90
2022-11-11T14:16:46.114Z,18.55
2022-11-11T14:19:21.637Z,18.60
2022-11-11T14:21:57.912Z,17.55
2022-11-11T14:24:38.956Z,19.30
2022-11-11T14:27:08.582Z,16.15
2022-11-11T14:29:39.317Z,16.00
2022-11-11T14:32:21.231Z,18.30
2022-11-11T14:35:15.655Z,17.38
2022-11-11T14:38:06.518Z,18.70
2022-11-11T14:40:34.331Z,16.50
2022-11-11T14:43:41.340Z,20.05
2022-11-11T14:46:18.778Z,19.50
2022-11-11T14:48:50.498Z,19.65
2022-11-11T14:51:46.517Z,20.17
2022-11-11T14:54:42.131Z,22.63
2022-11-11T14:57:18.399Z,22.65
2022-11-11T14:59:45.211Z,25.05
2022-11-11T15:02:22.950Z,22.63
2022-11-11T15:04:49.952Z,24.48
2022-11-11T15:07:28.575Z,23.27
2022-11-11T15:10:20.223Z,24.15
2022-11-11T15:12:46.834Z,23.33
2022-11-11T15:15:22.695Z,21.17
2022-11-11T15:18:03.203Z,23.90
2022-11-11T15:20:49.893Z,21.80
2022-11-11T15:23:44.857Z,26.70
2022-11-11T15:26:32.698Z,24.45
2022-11-11T15:29:29.014Z,24.75
2022-11-11T15:32:17.008Z,28.05
2022-11-11T15:34:52.858Z,27.50
2022-11-11T15:37:22.187Z,26.45
2022-11-11T15:39:53.233Z,23.42
2022-11-11T15:42:43.189Z,21.15
2022-11-11T15:45:23.604Z,27.20
2022-11-11T15:47:51.996Z,28.08
2022-11-11T15:50:31.946Z,25.98
2022-11-11T15:53:05.989Z,29.13
2022-11-11T15:55:37.582Z,28.10
2022-11-11T15:58:11.838Z,25.73
2022-11-11T16:00:39.373Z,30.23
2022-11-11T16:03:06.825Z,27.52
2022-11-11T16:05:34.866Z,27.50
2022-11-11T16:08:11.187Z,25.85
2022-11-11T16:10:41.426Z,27.77
2022-11-11T16:13:23.081Z,26.50
2022-11-11T16:15:55.359Z,27.48
2022-11-11T16:18:40.039Z,30.42
2022-11-11T16:21:08.403Z,29.80
2022-11-11T16:23:35.593Z,25.33
2022-11-11T16:26:04.935Z,29.43
2022-11-11T16:28:41.922Z,23.38
2022-11-11T16:31:41.080Z,24.10
2022-11-11T16:34:45.175Z,25.85
2022-11-11T16:37:18.733Z,23.65
2022-11-11T16:39:46.044Z,26.42
2022-11-11T16:42:27.389Z,25.93
2022-11-11T16:45:00.755Z,24.38
2022-11-11T16:47:33.509Z,23.83
2022-11-11T16:50:30.187Z,27.97
2022-11-11T16:53:04.652Z,23.45
2022-11-11T16:55:38.889Z,27.00
2022-11-11T16:58:19.055Z,32.25
2022-11-11T17:00:46.319Z,26.30
2022-11-11T17:03:17.941Z,25.52
2022-11-11T17:06:00.257Z,24.50
2022-11-11T17:08:39.064Z,23.17
2022-11-11T17:11:12.048Z,22.80
2022-11-11T17:13:42.500Z,22.70
2022-11-11T17:16:10.253Z,24.27
2022-11-11T17:18:40.614Z,24.07
2022-11-11T17:21:07.615Z,25.73
2022-11-11T17:23:39.130Z,28.23
2022-11-11T17:26:06.921Z,31.07
2022-11-11T17:28:35.544Z,30.03
2022-11-11T17:31:10.826Z,28.33
2022-11-11T17:33:37.535Z,27.73
2022-11-11T17:36:04.934Z,28.70
2022-11-11T17:38:38.235Z,29.93
2022-11-11T17:41:05.365Z,29.60
2022-11-11T17:43:32.520Z,30.23
2022-11-11T17:46:03.863Z,29.17
2022-11-11T17:48:30.768Z,26.67
2022-11-11T17:50:58.193Z,28.20
2022-11-11T17:53:25.758Z,30.07
2022-11-11T17:55:52.579Z,34.27
2022-11-11T17:58:19.344Z,33.90
2022-11-11T18:00:46.930Z,27.90
2022-11-11T18:03:13.631Z,28.07
2022-11-11T18:05:40.340Z,26.80
2022-11-11T18:08:07.052Z,28.50
2022-11-11T18:10:33.814Z,25.43
2022-11-11T18:13:00.455Z,26.20
2022-11-11T18:15:27.438Z,26.23
2022-11-11T18:17:54.210Z,23.33
2022-11-11T18:20:20.900Z,26.53
2022-11-11T18:22:47.582Z,26.63
2022-11-11T18:25:14.673Z,28.00
2022-11-11T18:27:41.332Z,26.73
2022-11-11T18:30:09.002Z,29.57
2022-11-11T18:32:35.725Z,29.93
2022-11-11T18:35:02.587Z,26.80
2022-11-11T18:37:29.544Z,26.27
2022-11-11T18:39:56.517Z,25.83
2022-11-11T18:42:23.215Z,24.53
2022-11-11T18:44:49.875Z,26.27
2022-11-11T18:47:16.739Z,28.20
2022-11-11T18:49:43.364Z,26.40
2022-11-11T18:52:10.413Z,26.57
2022-11-11T18:54:37.355Z,22.37
2022-11-11T18:57:04.024Z,21.90
2022-11-11T18:59:30.681Z,25.43
2022-11-11T19:01:57.471Z,23.57
2022-11-11T19:04:24.297Z,24.80
2022-11-11T19:06:51.044Z,25.80
2022-11-11T19:09:17.836Z,24.13
2022-11-11T19:11:46.144Z,25.42
2022-11-11T19:14:18.683Z,25.03
2022-11-11T19:16:48.551Z,25.07
2022-11-11T19:19:16.351Z,31.37
2022-11-11T19:21:43.022Z,25.10
2022-11-11T19:24:09.979Z,28.57
2022-11-11T19:26:36.931Z,21.87
2022-11-11T19:29:10.067Z,31.53
2022-11-11T19:31:36.746Z,36.80
2022-11-11T19:34:03.517Z,27.17
2022-11-11T19:36:30.929Z,29.37
2022-11-11T19:38:59.693Z,25.53
2022-11-11T19:41:28.361Z,26.23
2022-11-11T19:43:56.760Z,27.83
2022-11-11T19:46:25.030Z,26.47
2022-11-11T19:48:56.872Z,26.23
2022-11-11T19:51:26.120Z,23.43
2022-11-11T19:53:56.756Z,23.13
2022-11-11T19:56:28.607Z,20.77
2022-11-11T19:58:55.338Z,33.10
2022-11-11T20:01:24.955Z,23.73
2022-11-11T20:03:52.869Z,23.80
2022-11-11T20:06:22.690Z,30.52
2022-11-11T20:08:49.689Z,23.50
2022-11-11T20:11:17.598Z,19.93
2022-11-11T20:13:44.280Z,21.00
2022-11-11T20:16:11.155Z,21.80
2022-11-11T20:18:37.904Z,16.83
2022-11-11T20:21:06.642Z,20.70
2022-11-11T20:23:40.409Z,17.67
2022-11-11T20:26:09.905Z,18.13
2022-11-11T20:28:36.915Z,17.87
2022-11-11T20:31:11.929Z,37.23
2022-11-11T20:33:38.649Z,37.80
2022-11-11T20:36:08.234Z,27.50
2022-11-11T20:38:35.515Z,19.20
2022-11-11T20:41:06.969Z,23.07
2022-11-11T20:43:35.937Z,23.90
2022-11-11T20:46:04.042Z,22.73
2022-11-11T20:48:30.868Z,20.97
2022-11-11T20:51:08.075Z,17.40
2022-11-11T20:53:35.244Z,23.57
2022-11-11T20:56:13.791Z,20.47
2022-11-11T20:58:41.231Z,20.70
2022-11-11T21:01:14.105Z,19.13
2022-11-11T21:03:41.727Z,17.27
2022-11-11T21:06:14.754Z,23.47
2022-11-11T21:08:43.546Z,27.33
2022-11-11T21:11:13.101Z,22.07
2022-11-11T21:13:39.792Z,26.17
2022-11-11T21:16:15.749Z,22.17
2022-11-11T21:18:44.574Z,18.23
2022-11-11T21:21:20.207Z,23.17
2022-11-11T21:23:47.560Z,26.00
2022-11-11T21:26:16.998Z,18.93
2022-11-11T21:28:45.043Z,17.30
2022-11-11T21:31:22.720Z,16.77
2022-11-11T21:34:04.304Z,19.93
2022-11-11T21:36:33.833Z,20.00
2022-11-11T21:39:03.882Z,18.63
2022-11-11T21:41:32.625Z,17.13
2022-11-11T21:43:59.962Z,18.37
2022-11-11T21:46:27.620Z,20.13
2022-11-11T21:48:55.038Z,15.53
2022-11-11T21:51:23.275Z,18.57
2022-11-11T21:53:58.022Z,19.97
2022-11-11T21:56:31.238Z,20.73
2022-11-11T21:58:59.903Z,18.37
2022-11-11T22:01:30.643Z,21.03
2022-11-11T22:04:03.419Z,19.93
2022-11-11T22:06:30.409Z,20.30
2022-11-11T22:08:58.491Z,21.57
2022-11-11T22:11:28.305Z,33.00
2022-11-11T22:13:55.007Z,21.50
2022-11-11T22:16:27.532Z,20.07
2022-11-11T22:18:56.764Z,21.63
2022-11-11T22:21:26.645Z,17.17
2022-11-11T22:24:02.193Z,18.10
2022-11-11T22:26:33.161Z,17.10
2022-11-11T22:29:01.591Z,18.43
2022-11-11T22:31:30.854Z,17.90
2022-11-11T22:34:01.555Z,16.00
2022-11-11T22:36:34.701Z,15.43
2022-11-11T22:39:01.805Z,15.80
2022-11-11T22:41:33.178Z,13.93
2022-11-11T22:44:01.297Z,14.70
2022-11-11T22:46:29.778Z,13.77
2022-11-11T22:49:01.105Z,15.23
2022-11-11T22:51:30.489Z,14.93
2022-11-11T22:54:01.086Z,12.67
2022-11-11T22:56:31.975Z,13.33
2022-11-11T22:58:58.938Z,16.93
2022-11-11T23:01:30.624Z,12.93
2022-11-11T23:04:01.418Z,15.53
2022-11-11T23:06:36.568Z,13.43
2022-11-11T23:09:04.029Z,14.17
2022-11-11T23:11:32.632Z,13.57
2022-11-11T23:14:03.882Z,13.00
2022-11-11T23:16:32.226Z,11.00
2022-11-11T23:19:04.482Z,10.00
2022-11-11T23:21:32.212Z,11.70
2022-11-11T23:23:59.541Z,10.80
2022-11-11T23:26:30.279Z,11.00
2022-11-11T23:28:57.737Z,10.53
2022-11-11T23:31:27.382Z,13.60
2022-11-11T23:33:58.130Z,10.00
2022-11-11T23:36:27.998Z,14.90
2022-11-11T23:38:54.961Z,11.37
2022-11-11T23:41:21.813Z,14.03
2022-11-11T23:43:52.078Z,9.03
2022-11-11T23:46:18.895Z,10.73
2022-11-11T23:48:45.710Z,21.17
2022-11-11T23:51:12.868Z,10.33
2022-11-11T23:53:39.639Z,13.87
2022-11-11T23:56:08.526Z,14.57
2022-11-11T23:58:35.254Z,12.13
